createdAt,value
2019-05-25T00:00:49.764Z,11.51
2019-05-25T00:02:49.976Z,11.50
2019-05-25T00:04:50.293Z,11.50
2019-05-25T00:06:50.508Z,11.49
2019-05-25T00:08:50.682Z,11.47
2019-05-25T00:10:49.819Z,11.45
2019-05-25T00:12:50.010Z,11.43
2019-05-25T00:14:50.020Z,11.40
2019-05-25T00:16:50.284Z,11.38
2019-05-25T00:18:50.415Z,11.34
2019-05-25T00:20:50.525Z,11.29
2019-05-25T00:22:49.706Z,11.26
2019-05-25T00:24:49.687Z,11.23
2019-05-25T00:26:49.977Z,11.20
2019-05-25T00:28:49.991Z,11.16
2019-05-25T00:30:50.028Z,11.14
2019-05-25T00:32:50.126Z,11.10
2019-05-25T00:34:50.592Z,11.09
2019-05-25T00:36:49.872Z,11.07
2019-05-25T00:38:50.000Z,11.04
2019-05-25T00:40:50.099Z,11.02
2019-05-25T00:42:50.194Z,10.98
2019-05-25T00:44:50.274Z,10.94
2019-05-25T00:46:50.472Z,10.91
2019-05-25T00:48:50.486Z,10.90
2019-05-25T00:50:50.570Z,10.88
2019-05-25T00:52:50.621Z,10.87
2019-05-25T00:54:50.733Z,10.85
2019-05-25T00:56:49.881Z,10.85
2019-05-25T00:58:49.914Z,10.85
2019-05-25T01:00:50.081Z,10.82
2019-05-25T01:02:50.241Z,10.79
2019-05-25T01:04:50.636Z,10.74
2019-05-25T01:06:49.884Z,10.69
2019-05-25T01:08:49.910Z,10.66
2019-05-25T01:10:49.957Z,10.59
2019-05-25T01:12:50.146Z,10.56
2019-05-25T01:14:50.224Z,10.52
2019-05-25T01:16:50.569Z,10.48
2019-05-25T01:18:49.841Z,10.47
2019-05-25T01:20:50.012Z,10.44
2019-05-25T01:22:50.176Z,10.43
2019-05-25T01:24:50.272Z,10.39
2019-05-25T01:26:50.512Z,10.33
2019-05-25T01:28:50.525Z,10.28
2019-05-25T01:30:49.687Z,10.25
2019-05-25T01:32:49.953Z,10.19
2019-05-25T01:34:50.398Z,10.17
2019-05-25T01:36:50.651Z,10.14
2019-05-25T01:38:49.698Z,10.14
2019-05-25T01:40:49.872Z,10.14
2019-05-25T01:42:49.912Z,10.15
2019-05-25T01:44:49.979Z,10.12
2019-05-25T01:46:50.343Z,10.08
2019-05-25T01:48:50.357Z,10.05
2019-05-25T01:50:50.403Z,10.01
2019-05-25T01:52:50.502Z,9.99
2019-05-25T01:55:00.772Z,9.95
2019-05-25T01:56:49.947Z,9.93
2019-05-25T01:58:49.903Z,9.91
2019-05-25T02:00:49.957Z,9.91
2019-05-25T02:02:50.059Z,9.92
2019-05-25T02:04:50.443Z,9.94
2019-05-25T02:06:50.651Z,9.94
2019-05-25T02:08:50.120Z,9.93
2019-05-25T02:10:50.209Z,9.92
2019-05-25T02:12:50.285Z,9.92
2019-05-25T02:14:50.345Z,9.93
2019-05-25T02:16:49.696Z,9.95
2019-05-25T02:18:49.770Z,9.95
2019-05-25T02:20:49.818Z,9.94
2019-05-25T02:22:49.874Z,9.94
2019-05-25T02:24:50.013Z,9.93
2019-05-25T02:26:50.265Z,9.93
2019-05-25T02:28:50.396Z,9.95
2019-05-25T02:30:50.496Z,9.95
2019-05-25T02:32:50.628Z,9.94
2019-05-25T02:34:50.018Z,9.92
2019-05-25T02:36:50.212Z,9.87
2019-05-25T02:38:50.323Z,9.83
2019-05-25T02:40:50.557Z,9.82
2019-05-25T02:42:50.523Z,9.82
2019-05-25T02:44:50.507Z,9.83
2019-05-25T02:46:50.689Z,9.83
2019-05-25T02:48:49.752Z,9.80
2019-05-25T02:50:53.400Z,9.80
2019-05-25T02:52:50.439Z,9.77
2019-05-25T02:54:50.513Z,9.74
2019-05-25T02:56:50.701Z,9.71
2019-05-25T02:58:49.745Z,9.68
2019-05-25T03:00:49.813Z,9.66
2019-05-25T03:02:49.885Z,9.64
2019-05-25T03:04:50.322Z,9.63
2019-05-25T03:06:50.623Z,9.61
2019-05-25T03:08:50.669Z,9.58
2019-05-25T03:10:51.070Z,9.58
2019-05-25T03:12:50.288Z,9.59
2019-05-25T03:14:50.262Z,9.59
2019-05-25T03:16:50.535Z,9.53
2019-05-25T03:18:50.591Z,9.48
2019-05-25T03:20:49.825Z,9.47
2019-05-25T03:22:49.779Z,9.47
2019-05-25T03:24:49.902Z,9.49
2019-05-25T03:26:50.089Z,9.49
2019-05-25T03:28:50.210Z,9.51
2019-05-25T03:30:50.394Z,9.53
2019-05-25T03:32:50.534Z,9.52
2019-05-25T03:34:50.007Z,9.52
2019-05-25T03:36:50.322Z,9.54
2019-05-25T03:38:50.391Z,9.54
2019-05-25T03:40:50.454Z,9.52
2019-05-25T03:42:50.515Z,9.52
2019-05-25T03:44:50.652Z,9.51
2019-05-25T03:46:50.063Z,9.52
2019-05-25T03:48:50.114Z,9.51
2019-05-25T03:50:50.258Z,9.52
2019-05-25T03:52:50.382Z,9.52
2019-05-25T03:54:50.437Z,9.52
2019-05-25T03:56:50.705Z,9.52
2019-05-25T03:58:49.724Z,9.54
2019-05-25T04:00:49.870Z,9.60
2019-05-25T04:02:50.432Z,9.66
2019-05-25T04:04:49.965Z,9.69
2019-05-25T04:06:50.193Z,9.77
2019-05-25T04:08:50.212Z,9.81
2019-05-25T04:10:50.287Z,9.83
2019-05-25T04:12:50.313Z,9.85
2019-05-25T04:14:50.376Z,9.89
2019-05-25T04:16:50.621Z,9.93
2019-05-25T04:18:49.843Z,9.97
2019-05-25T04:20:49.971Z,10.04
2019-05-25T04:22:50.045Z,10.08
2019-05-25T04:24:50.128Z,10.14
2019-05-25T04:26:50.535Z,10.21
2019-05-25T04:28:50.605Z,10.30
2019-05-25T04:30:50.699Z,10.43
2019-05-25T04:32:49.784Z,10.51
2019-05-25T04:34:50.288Z,10.65
2019-05-25T04:36:50.494Z,10.73
2019-05-25T04:38:50.885Z,10.86
2019-05-25T04:40:50.030Z,10.98
2019-05-25T04:42:50.022Z,11.09
2019-05-25T04:44:50.054Z,11.17
2019-05-25T04:46:50.337Z,11.23
2019-05-25T04:48:50.396Z,11.41
2019-05-25T04:50:50.456Z,11.46
2019-05-25T04:52:50.531Z,11.51
2019-05-25T04:54:49.760Z,11.67
2019-05-25T04:56:50.175Z,11.78
2019-05-25T04:58:50.222Z,11.78
2019-05-25T05:00:50.279Z,11.78
2019-05-25T05:02:50.340Z,12.15
2019-05-25T05:04:49.743Z,12.37
2019-05-25T05:06:50.219Z,12.48
2019-05-25T05:08:50.338Z,12.51
2019-05-25T05:10:50.405Z,12.57
2019-05-25T05:12:50.513Z,12.66
2019-05-25T05:14:50.503Z,12.78
2019-05-25T05:16:49.787Z,12.90
2019-05-25T05:18:49.860Z,13.08
2019-05-25T05:20:49.967Z,13.20
2019-05-25T05:22:49.997Z,13.33
2019-05-25T05:24:50.015Z,13.36
2019-05-25T05:26:56.761Z,13.36
2019-05-25T05:28:49.842Z,13.30
2019-05-25T05:30:49.966Z,13.27
2019-05-25T05:32:50.023Z,13.32
2019-05-25T05:34:50.522Z,13.39
2019-05-25T05:36:50.330Z,13.53
2019-05-25T05:38:50.345Z,13.62
2019-05-25T05:40:50.516Z,13.74
2019-05-25T05:42:50.525Z,13.82
2019-05-25T05:44:50.601Z,13.90
2019-05-25T05:46:49.876Z,13.91
2019-05-25T05:48:49.847Z,13.99
2019-05-25T05:50:49.935Z,14.03
2019-05-25T05:52:49.948Z,14.13
2019-05-25T05:54:50.035Z,14.12
2019-05-25T05:56:50.343Z,14.26
2019-05-25T05:58:50.409Z,14.31
2019-05-25T06:00:50.525Z,14.45
2019-05-25T06:02:50.742Z,14.52
2019-05-25T06:04:50.350Z,14.59
2019-05-25T06:06:50.573Z,14.57
2019-05-25T06:08:50.573Z,14.56
2019-05-25T06:10:50.564Z,14.67
2019-05-25T06:12:50.615Z,14.73
2019-05-25T06:14:50.654Z,14.93
2019-05-25T06:16:49.963Z,15.06
2019-05-25T06:18:50.079Z,15.08
2019-05-25T06:20:50.192Z,15.04
2019-05-25T06:22:50.244Z,15.09
2019-05-25T06:24:50.352Z,15.22
2019-05-25T06:26:50.497Z,15.47
2019-05-25T06:28:50.575Z,15.59
2019-05-25T06:30:50.649Z,15.67
2019-05-25T06:32:49.739Z,15.75
2019-05-25T06:34:50.283Z,15.85
2019-05-25T06:36:50.592Z,15.99
2019-05-25T06:38:50.557Z,16.21
2019-05-25T06:40:50.580Z,16.42
2019-05-25T06:42:50.600Z,16.49
2019-05-25T06:44:49.831Z,16.67
2019-05-25T06:46:50.242Z,16.77
2019-05-25T06:48:50.273Z,17.03
2019-05-25T06:50:50.310Z,16.93
2019-05-25T06:52:50.443Z,16.93
2019-05-25T06:54:50.609Z,16.93
2019-05-25T06:56:49.753Z,17.11
2019-05-25T06:58:49.864Z,17.11
2019-05-25T07:00:49.909Z,17.00
2019-05-25T07:02:49.917Z,16.98
2019-05-25T07:04:50.264Z,17.04
2019-05-25T07:06:50.590Z,17.06
2019-05-25T07:08:49.767Z,17.08
2019-05-25T07:10:49.714Z,17.35
2019-05-25T07:12:49.850Z,17.35
2019-05-25T07:14:49.904Z,17.54
2019-05-25T07:16:50.293Z,17.79
2019-05-25T07:18:50.504Z,18.29
2019-05-25T07:20:50.537Z,18.34
2019-05-25T07:22:50.727Z,18.43
2019-05-25T07:24:49.962Z,18.51
2019-05-25T07:26:50.255Z,18.57
2019-05-25T07:28:50.366Z,18.52
2019-05-25T07:30:50.442Z,18.55
2019-05-25T07:32:50.467Z,18.41
2019-05-25T07:34:49.906Z,18.59
2019-05-25T07:36:49.971Z,18.62
2019-05-25T07:38:50.260Z,18.41
2019-05-25T07:40:50.370Z,18.32
2019-05-25T07:42:50.363Z,18.27
2019-05-25T07:44:50.488Z,18.55
2019-05-25T07:46:50.591Z,18.51
2019-05-25T07:48:50.818Z,18.42
2019-05-25T07:50:49.874Z,18.83
2019-05-25T07:52:49.978Z,19.09
2019-05-25T07:54:50.027Z,19.01
2019-05-25T07:56:50.290Z,19.01
2019-05-25T07:58:50.456Z,18.73
2019-05-25T08:00:50.557Z,18.73
2019-05-25T08:02:50.619Z,18.88
2019-05-25T08:04:50.023Z,18.96
2019-05-25T08:06:50.209Z,18.96
2019-05-25T08:08:50.374Z,19.33
2019-05-25T08:10:50.543Z,19.47
2019-05-25T08:12:50.648Z,19.43
2019-05-25T08:14:49.727Z,19.60
2019-05-25T08:16:49.996Z,19.69
2019-05-25T08:18:50.083Z,19.57
2019-05-25T08:20:50.235Z,19.71
2019-05-25T08:22:50.352Z,19.75
2019-05-25T08:24:50.459Z,19.54
2019-05-25T08:26:49.850Z,19.55
2019-05-25T08:28:49.897Z,19.56
2019-05-25T08:30:50.059Z,19.30
2019-05-25T08:32:50.214Z,19.48
2019-05-25T08:34:50.677Z,19.47
2019-05-25T08:36:49.873Z,19.27
2019-05-25T08:38:49.943Z,18.94
2019-05-25T08:40:49.984Z,19.04
2019-05-25T08:42:50.075Z,19.11
2019-05-25T08:44:50.138Z,18.96
2019-05-25T08:46:50.369Z,18.91
2019-05-25T08:48:50.356Z,18.99
2019-05-25T08:50:50.378Z,18.90
2019-05-25T08:52:50.504Z,18.85
2019-05-25T08:54:50.615Z,18.96
2019-05-25T08:56:49.801Z,19.03
2019-05-25T08:58:49.805Z,19.10
2019-05-25T09:00:49.954Z,19.39
2019-05-25T09:02:50.028Z,19.39
2019-05-25T09:04:50.445Z,19.56
2019-05-25T09:06:50.594Z,19.45
2019-05-25T09:08:50.606Z,19.48
2019-05-25T09:10:49.867Z,19.55
2019-05-25T09:12:50.099Z,19.54
2019-05-25T09:14:50.120Z,19.59
2019-05-25T09:16:50.307Z,19.83
2019-05-25T09:18:50.504Z,20.11
2019-05-25T09:20:50.581Z,20.36
2019-05-25T09:22:50.638Z,20.34
2019-05-25T09:24:49.692Z,20.42
2019-05-25T09:26:49.859Z,20.44
2019-05-25T09:29:05.355Z,20.52
2019-05-25T09:30:49.872Z,20.72
2019-05-25T09:32:49.853Z,20.93
2019-05-25T09:34:50.303Z,20.99
2019-05-25T09:36:50.574Z,20.79
2019-05-25T09:38:50.656Z,20.88
2019-05-25T09:40:49.734Z,21.1
2019-05-25T09:42:50.299Z,21.1
2019-05-25T09:44:50.417Z,21.01
2019-05-25T09:46:49.735Z,21.15
2019-05-25T09:48:49.721Z,21.2
2019-05-25T09:50:49.770Z,21.2
2019-05-25T09:52:49.881Z,21.3
2019-05-25T09:54:55.962Z,21.4
2019-05-25T09:56:50.221Z,21.4
2019-05-25T09:58:50.334Z,21.4
2019-05-25T10:00:50.432Z,21.5
2019-05-25T10:02:50.867Z,21.6
2019-05-25T10:04:50.402Z,21.8
2019-05-25T10:06:50.631Z,21.8
2019-05-25T10:08:50.701Z,22.0
2019-05-25T10:10:49.853Z,22.0
2019-05-25T10:12:49.827Z,22.1
2019-05-25T10:14:50.085Z,22.3
2019-05-25T10:16:50.242Z,22.4
2019-05-25T10:18:50.362Z,22.5
2019-05-25T10:20:50.353Z,22.5
2019-05-25T10:22:50.510Z,22.54
2019-05-25T10:24:50.588Z,22.66
2019-05-25T10:26:49.840Z,22.64
2019-05-25T10:28:49.782Z,22.44
2019-05-25T10:30:49.960Z,22.44
2019-05-25T10:32:49.911Z,22.59
2019-05-25T10:34:50.378Z,22.99
2019-05-25T10:36:50.539Z,22.90
2019-05-25T10:38:50.653Z,22.83
2019-05-25T10:40:49.872Z,23.0
2019-05-25T10:42:49.944Z,22.9
2019-05-25T10:44:49.919Z,22.9
2019-05-25T10:46:50.000Z,22.8
2019-05-25T10:48:50.107Z,22.8
2019-05-25T10:50:50.182Z,22.7
2019-05-25T10:52:50.288Z,22.6
2019-05-25T10:54:50.369Z,22.6
2019-05-25T10:56:50.531Z,22.6
2019-05-25T10:58:49.894Z,22.5
2019-05-25T11:00:50.051Z,22.4
2019-05-25T11:02:50.085Z,22.3
2019-05-25T11:04:50.432Z,22.3
2019-05-25T11:06:50.640Z,22.3
2019-05-25T11:08:50.769Z,22.2
2019-05-25T11:10:49.908Z,22.2
2019-05-25T11:12:49.978Z,22.1
2019-05-25T11:14:50.041Z,22.1
2019-05-25T11:16:50.286Z,22.1
2019-05-25T11:18:50.373Z,22.1
2019-05-25T11:20:50.491Z,22.0
2019-05-25T11:22:50.718Z,22.0
2019-05-25T11:24:49.856Z,22.0
2019-05-25T11:26:50.010Z,21.9
2019-05-25T11:28:50.142Z,21.9
2019-05-25T11:30:50.224Z,22.0
2019-05-25T11:32:50.327Z,22.0
2019-05-25T11:34:49.732Z,21.9
2019-05-25T11:36:50.020Z,21.9
2019-05-25T11:38:50.106Z,21.9
2019-05-25T11:40:50.160Z,21.9
2019-05-25T11:42:50.279Z,21.9
2019-05-25T11:44:50.442Z,21.9
2019-05-25T11:46:49.743Z,21.9
2019-05-25T11:48:49.800Z,22.0
2019-05-25T11:50:49.953Z,22.0
2019-05-25T11:52:50.273Z,22.0
2019-05-25T11:54:50.423Z,21.9
2019-05-25T11:56:50.523Z,22.0
2019-05-25T11:58:50.673Z,22.0
2019-05-25T12:00:52.044Z,22.0
2019-05-25T12:02:50.222Z,22.0
2019-05-25T12:04:50.681Z,22.0
2019-05-25T12:06:49.926Z,22.1
2019-05-25T12:08:49.970Z,22.1
2019-05-25T12:10:50.036Z,22.2
2019-05-25T12:12:50.150Z,22.2
2019-05-25T12:14:50.257Z,22.2
2019-05-25T12:16:50.542Z,22.2
2019-05-25T12:18:50.723Z,22.3
2019-05-25T12:20:49.808Z,22.3
2019-05-25T12:22:50.151Z,22.4
2019-05-25T12:24:49.748Z,22.4
2019-05-25T12:26:49.958Z,22.4
2019-05-25T12:28:50.041Z,22.5
2019-05-25T12:30:50.128Z,22.6
2019-05-25T12:32:50.222Z,22.6
2019-05-25T12:34:50.618Z,22.6
2019-05-25T12:36:49.961Z,22.6
2019-05-25T12:38:50.026Z,22.7
2019-05-25T12:40:54.506Z,22.7
2019-05-25T12:42:50.705Z,22.7
2019-05-25T12:44:49.801Z,22.8
2019-05-25T12:46:50.100Z,22.8
2019-05-25T12:48:50.180Z,22.8
2019-05-25T12:50:50.351Z,22.8
2019-05-25T12:52:50.421Z,22.9
2019-05-25T12:54:50.457Z,22.9
2019-05-25T12:56:49.769Z,23.0
2019-05-25T12:58:50.639Z,23.0
2019-05-25T13:00:56.734Z,23.0
2019-05-25T13:02:49.980Z,23.0
2019-05-25T13:04:50.428Z,23.0
2019-05-25T13:06:49.713Z,23.1
2019-05-25T13:08:49.819Z,23.1
2019-05-25T13:10:49.928Z,23.1
2019-05-25T13:12:50.202Z,23.2
2019-05-25T13:14:50.285Z,23.2
2019-05-25T13:16:50.465Z,23.2
2019-05-25T13:18:50.472Z,23.2
2019-05-25T13:20:50.561Z,23.3
2019-05-25T13:22:50.605Z,23.3
2019-05-25T13:24:50.912Z,23.4
2019-05-25T13:26:50.335Z,23.4
2019-05-25T13:28:50.346Z,23.4
2019-05-25T13:30:50.498Z,23.4
2019-05-25T13:32:50.519Z,23.5
2019-05-25T13:34:49.987Z,23.5
2019-05-25T13:36:50.303Z,23.6
2019-05-25T13:38:50.299Z,23.6
2019-05-25T13:40:50.416Z,23.7
2019-05-25T13:42:50.526Z,23.7
2019-05-25T13:44:50.533Z,23.7
2019-05-25T13:46:49.713Z,23.7
2019-05-25T13:48:49.796Z,23.8
2019-05-25T13:50:49.870Z,23.9
2019-05-25T13:52:49.961Z,24.0
2019-05-25T13:54:50.054Z,24.0
2019-05-25T13:56:50.227Z,24.0
2019-05-25T13:58:50.307Z,24.0
2019-05-25T14:00:50.372Z,23.9
2019-05-25T14:02:50.491Z,23.71
2019-05-25T14:04:49.838Z,23.46
2019-05-25T14:06:50.324Z,23.61
2019-05-25T14:08:50.460Z,23.6
2019-05-25T14:10:50.409Z,23.6
2019-05-25T14:12:50.475Z,23.6
2019-05-25T14:14:50.579Z,23.6
2019-05-25T14:16:49.825Z,23.6
2019-05-25T14:18:49.935Z,23.7
2019-05-25T14:20:50.010Z,23.7
2019-05-25T14:22:50.058Z,23.7
2019-05-25T14:24:49.997Z,23.7
2019-05-25T14:26:50.171Z,23.6
2019-05-25T14:28:50.183Z,23.6
2019-05-25T14:30:50.235Z,23.59
2019-05-25T14:32:50.254Z,23.27
2019-05-25T14:34:50.671Z,23.19
2019-05-25T14:36:49.872Z,23.05
2019-05-25T14:38:49.985Z,23.08
2019-05-25T14:40:50.111Z,23.08
2019-05-25T14:42:50.271Z,22.89
2019-05-25T14:44:50.303Z,22.77
2019-05-25T14:46:50.490Z,22.69
2019-05-25T14:48:50.529Z,22.62
2019-05-25T14:50:49.771Z,22.46
2019-05-25T14:52:49.729Z,22.25
2019-05-25T14:54:49.774Z,22.07
2019-05-25T14:56:50.133Z,21.75
2019-05-25T14:58:50.295Z,21.52
2019-05-25T15:00:50.448Z,21.49
2019-05-25T15:02:50.496Z,21.30
2019-05-25T15:04:49.934Z,21.25
2019-05-25T15:06:50.045Z,21.23
2019-05-25T15:08:50.069Z,21.26
2019-05-25T15:10:50.190Z,21.18
2019-05-25T15:12:50.402Z,21.13
2019-05-25T15:14:50.461Z,21.03
2019-05-25T15:16:51.033Z,20.87
2019-05-25T15:18:50.239Z,20.82
2019-05-25T15:20:50.327Z,20.75
2019-05-25T15:22:50.477Z,20.61
2019-05-25T15:24:50.477Z,20.59
2019-05-25T15:26:49.838Z,20.50
2019-05-25T15:28:49.781Z,20.29
2019-05-25T15:30:49.850Z,20.28
2019-05-25T15:32:49.855Z,20.25
2019-05-25T15:34:50.392Z,20.28
2019-05-25T15:36:50.672Z,20.41
2019-05-25T15:38:50.664Z,20.41
2019-05-25T15:40:49.746Z,20.42
2019-05-25T15:42:49.763Z,20.49
2019-05-25T15:44:49.828Z,20.54
2019-05-25T15:46:50.398Z,20.59
2019-05-25T15:48:50.646Z,20.64
2019-05-25T15:50:50.734Z,20.74
2019-05-25T15:52:49.802Z,20.75
2019-05-25T15:54:49.913Z,20.64
2019-05-25T15:56:50.191Z,20.57
2019-05-25T15:58:50.249Z,20.58
2019-05-25T16:00:50.367Z,20.61
2019-05-25T16:02:50.422Z,20.65
2019-05-25T16:04:49.738Z,20.59
2019-05-25T16:06:50.173Z,20.44
2019-05-25T16:08:50.278Z,20.41
2019-05-25T16:10:50.449Z,20.43
2019-05-25T16:12:50.467Z,20.49
2019-05-25T16:14:50.496Z,20.37
2019-05-25T16:16:49.770Z,20.37
2019-05-25T16:18:49.813Z,20.27
2019-05-25T16:20:49.859Z,20.06
2019-05-25T16:22:49.883Z,20.04
2019-05-25T16:24:49.978Z,20.06
2019-05-25T16:26:50.302Z,20.06
2019-05-25T16:28:50.472Z,20.16
2019-05-25T16:30:50.529Z,20.26
2019-05-25T16:33:14.689Z,20.24
2019-05-25T16:34:49.903Z,20.30
2019-05-25T16:36:50.315Z,20.30
2019-05-25T16:38:50.440Z,20.24
2019-05-25T16:40:50.543Z,20.26
2019-05-25T16:42:50.605Z,20.38
2019-05-25T16:44:49.766Z,20.26
2019-05-25T16:46:49.847Z,20.21
2019-05-25T16:48:50.011Z,20.25
2019-05-25T16:50:50.064Z,20.25
2019-05-25T16:52:50.251Z,20.41
2019-05-25T16:54:50.401Z,20.54
2019-05-25T16:56:50.670Z,20.68
2019-05-25T16:58:50.616Z,20.68
2019-05-25T17:00:50.691Z,20.58
2019-05-25T17:02:49.808Z,20.47
2019-05-25T17:04:50.292Z,20.43
2019-05-25T17:06:50.502Z,20.43
2019-05-25T17:08:50.530Z,20.14
2019-05-25T17:10:50.540Z,20.14
2019-05-25T17:12:50.602Z,19.85
2019-05-25T17:14:50.636Z,19.79
2019-05-25T17:16:49.940Z,19.76
2019-05-25T17:18:50.023Z,19.74
2019-05-25T17:20:50.206Z,19.69
2019-05-25T17:22:50.308Z,19.61
2019-05-25T17:24:50.461Z,19.54
2019-05-25T17:26:49.729Z,19.51
2019-05-25T17:28:49.735Z,19.42
2019-05-25T17:30:49.813Z,19.43
2019-05-25T17:32:49.917Z,19.44
2019-05-25T17:34:50.426Z,19.42
2019-05-25T17:36:49.690Z,19.36
2019-05-25T17:38:49.725Z,19.19
2019-05-25T17:40:49.770Z,19.07
2019-05-25T17:42:49.769Z,18.95
2019-05-25T17:44:49.917Z,18.80
2019-05-25T17:46:50.167Z,18.80
2019-05-25T17:48:50.381Z,18.61
2019-05-25T17:50:50.443Z,18.52
2019-05-25T17:52:50.499Z,18.40
2019-05-25T17:54:50.593Z,18.21
2019-05-25T17:56:49.899Z,18.03
2019-05-25T17:58:49.887Z,17.86
2019-05-25T18:00:49.983Z,17.75
2019-05-25T18:02:50.119Z,17.69
2019-05-25T18:04:50.615Z,17.60
2019-05-25T18:06:49.896Z,17.56
2019-05-25T18:08:50.085Z,17.51
2019-05-25T18:10:55.190Z,17.51
2019-05-25T18:12:50.689Z,17.42
2019-05-25T18:14:49.786Z,17.39
2019-05-25T18:16:50.046Z,17.33
2019-05-25T18:18:50.166Z,17.31
2019-05-25T18:20:51.257Z,17.22
2019-05-25T18:22:50.416Z,17.22
2019-05-25T18:24:50.392Z,17.12
2019-05-25T18:26:50.530Z,17.12
2019-05-25T18:28:49.702Z,17.01
2019-05-25T18:30:49.783Z,16.95
2019-05-25T18:32:49.959Z,16.86
2019-05-25T18:34:50.487Z,16.79
2019-05-25T18:36:50.577Z,16.73
2019-05-25T18:38:50.610Z,16.67
2019-05-25T18:40:50.610Z,16.58
2019-05-25T18:42:49.822Z,16.52
2019-05-25T18:44:49.954Z,16.45
2019-05-25T18:46:50.164Z,16.40
2019-05-25T18:48:50.287Z,16.32
2019-05-25T18:50:50.682Z,16.29
2019-05-25T18:52:49.987Z,16.24
2019-05-25T18:54:50.012Z,16.20
2019-05-25T18:56:50.230Z,16.15
2019-05-25T18:58:50.345Z,16.10
2019-05-25T19:00:50.424Z,16.05
2019-05-25T19:02:50.532Z,15.96
2019-05-25T19:05:00.480Z,15.86
2019-05-25T19:06:50.658Z,15.72
2019-05-25T19:08:50.707Z,15.66
2019-05-25T19:10:49.794Z,15.52
2019-05-25T19:12:49.794Z,15.43
2019-05-25T19:14:49.882Z,15.34
2019-05-25T19:16:50.135Z,15.22
2019-05-25T19:18:50.317Z,15.17
2019-05-25T19:20:50.483Z,15.10
2019-05-25T19:22:50.729Z,15.12
2019-05-25T19:24:49.835Z,15.08
2019-05-25T19:26:50.299Z,15.03
2019-05-25T19:28:50.389Z,15.00
2019-05-25T19:30:50.451Z,14.97
2019-05-25T19:32:50.522Z,15.09
2019-05-25T19:35:00.596Z,15.16
2019-05-25T19:36:50.650Z,15.16
2019-05-25T19:38:49.687Z,15.15
2019-05-25T19:40:49.720Z,15.11
2019-05-25T19:42:50.740Z,15.03
2019-05-25T19:44:49.757Z,15.03
2019-05-25T19:46:50.003Z,15.03
2019-05-25T19:48:50.012Z,15.04
2019-05-25T19:50:50.027Z,15.04
2019-05-25T19:52:50.338Z,15.06
2019-05-25T19:54:50.455Z,15.01
2019-05-25T19:56:50.688Z,14.88
2019-05-25T19:58:50.332Z,14.88
2019-05-25T20:00:50.401Z,14.83
2019-05-25T20:02:50.450Z,14.78
2019-05-25T20:04:49.826Z,14.75
2019-05-25T20:06:50.233Z,14.69
2019-05-25T20:08:50.367Z,14.53
2019-05-25T20:10:50.402Z,14.45
2019-05-25T20:12:50.465Z,14.36
2019-05-25T20:14:50.658Z,14.35
2019-05-25T20:16:50.611Z,14.36
2019-05-25T20:18:50.671Z,14.39
2019-05-25T20:20:49.710Z,14.45
2019-05-25T20:22:49.777Z,14.47
2019-05-25T20:24:49.782Z,14.46
2019-05-25T20:26:50.014Z,14.43
2019-05-25T20:28:51.261Z,14.26
2019-05-25T20:30:50.445Z,14.26
2019-05-25T20:32:50.697Z,14.18
2019-05-25T20:34:50.109Z,14.20
2019-05-25T20:36:50.354Z,14.17
2019-05-25T20:38:50.308Z,14.13
2019-05-25T20:40:50.696Z,14.01
2019-05-25T20:42:49.998Z,13.99
2019-05-25T20:44:50.124Z,13.92
2019-05-25T20:46:50.304Z,13.90
2019-05-25T20:48:50.429Z,13.86
2019-05-25T20:50:50.661Z,13.80
2019-05-25T20:52:50.019Z,13.72
2019-05-25T20:54:50.035Z,13.68
2019-05-25T20:56:50.235Z,13.66
2019-05-25T20:58:50.325Z,13.62
2019-05-25T21:00:50.461Z,13.62
2019-05-25T21:03:07.103Z,13.60
2019-05-25T21:04:49.968Z,13.56
2019-05-25T21:06:50.125Z,13.54
2019-05-25T21:08:50.249Z,13.51
2019-05-25T21:10:50.343Z,13.45
2019-05-25T21:12:50.369Z,13.39
2019-05-25T21:14:50.467Z,13.32
2019-05-25T21:16:50.551Z,13.28
2019-05-25T21:18:49.720Z,13.23
2019-05-25T21:20:49.801Z,13.18
2019-05-25T21:22:49.872Z,13.11
2019-05-25T21:24:49.848Z,13.08
2019-05-25T21:26:50.194Z,13.07
2019-05-25T21:28:50.193Z,13.01
2019-05-25T21:30:50.141Z,12.99
2019-05-25T21:32:50.221Z,12.94
2019-05-25T21:34:50.640Z,12.91
2019-05-25T21:36:50.026Z,12.89
2019-05-25T21:38:50.163Z,12.87
2019-05-25T21:40:50.259Z,12.85
2019-05-25T21:42:50.284Z,12.83
2019-05-25T21:44:50.326Z,12.82
2019-05-25T21:46:50.494Z,12.78
2019-05-25T21:48:50.517Z,12.77
2019-05-25T21:50:50.653Z,12.78
2019-05-25T21:52:50.672Z,12.80
2019-05-25T21:54:49.859Z,12.82
2019-05-25T21:56:50.313Z,12.82
2019-05-25T21:58:50.500Z,12.84
2019-05-25T22:00:50.704Z,12.84
2019-05-25T22:02:49.772Z,12.83
2019-05-25T22:04:50.370Z,12.83
2019-05-25T22:06:50.554Z,12.83
2019-05-25T22:08:50.664Z,12.84
2019-05-25T22:10:49.760Z,12.86
2019-05-25T22:12:49.846Z,12.88
2019-05-25T22:14:49.953Z,12.89
2019-05-25T22:16:50.167Z,12.89
2019-05-25T22:18:50.319Z,12.91
2019-05-25T22:20:50.532Z,12.94
2019-05-25T22:22:50.616Z,12.97
2019-05-25T22:24:49.736Z,13.01
2019-05-25T22:26:49.960Z,13.08
2019-05-25T22:28:50.024Z,13.11
2019-05-25T22:30:50.177Z,13.13
2019-05-25T22:32:50.246Z,13.18
2019-05-25T22:34:50.632Z,13.18
2019-05-25T22:36:49.757Z,13.19
2019-05-25T22:38:49.911Z,13.22
2019-05-25T22:40:50.130Z,13.26
2019-05-25T22:42:50.385Z,13.29
2019-05-25T22:44:50.557Z,13.29
2019-05-25T22:46:49.752Z,13.28
2019-05-25T22:48:49.868Z,13.30
2019-05-25T22:50:49.979Z,13.32
2019-05-25T22:52:50.098Z,13.36
2019-05-25T22:54:50.236Z,13.39
2019-05-25T22:56:50.551Z,13.43
2019-05-25T22:58:50.636Z,13.46
2019-05-25T23:00:50.615Z,13.49
2019-05-25T23:02:49.869Z,13.52
2019-05-25T23:04:50.325Z,13.53
2019-05-25T23:06:58.955Z,13.53
2019-05-25T23:08:50.045Z,13.51
2019-05-25T23:10:50.207Z,13.47
2019-05-25T23:12:50.360Z,13.46
2019-05-25T23:14:50.397Z,13.44
2019-05-25T23:16:50.559Z,13.42
2019-05-25T23:18:50.574Z,13.40
2019-05-25T23:20:49.754Z,13.39
2019-05-25T23:22:49.801Z,13.40
2019-05-25T23:24:49.947Z,13.39
2019-05-25T23:26:50.143Z,13.39
2019-05-25T23:28:50.230Z,13.39
2019-05-25T23:30:50.273Z,13.40
2019-05-25T23:32:50.359Z,13.41
2019-05-25T23:34:49.765Z,13.42
2019-05-25T23:36:50.006Z,13.41
2019-05-25T23:38:49.984Z,13.43
2019-05-25T23:40:50.014Z,13.43
2019-05-25T23:42:50.090Z,13.44
2019-05-25T23:44:50.153Z,13.44
2019-05-25T23:46:50.338Z,13.42
2019-05-25T23:48:50.416Z,13.42
2019-05-25T23:50:50.469Z,13.41
2019-05-25T23:52:51.121Z,13.41
2019-05-25T23:54:50.401Z,13.40
2019-05-25T23:56:49.745Z,13.41
2019-05-25T23:58:49.786Z,13.40
